createdAt,value
2023-02-25T00:00:38.086Z,101643.59
2023-02-25T00:03:06.073Z,101640.13
2023-02-25T00:05:35.400Z,101637.50
2023-02-25T00:08:03.358Z,101645.53
2023-02-25T00:10:31.251Z,101649.09
2023-02-25T00:13:15.966Z,101635.94
2023-02-25T00:15:45.473Z,101656.19
2023-02-25T00:18:13.398Z,101646.44
2023-02-25T00:20:42.691Z,101646.53
2023-02-25T00:23:10.548Z,101648.25
2023-02-25T00:25:38.479Z,101652.66
2023-02-25T00:28:06.606Z,101649.16
2023-02-25T00:30:34.789Z,101650.91
2023-02-25T00:33:02.833Z,101659.69
2023-02-25T00:35:30.791Z,101660.66
2023-02-25T00:38:13.770Z,101661.56
2023-02-25T00:40:43.498Z,101661.69
2023-02-25T00:43:11.360Z,101659.91
2023-02-25T00:45:40.447Z,101662.66
2023-02-25T00:48:08.367Z,101667.97
2023-02-25T00:50:36.241Z,101671.53
2023-02-25T00:53:05.627Z,101667.22
2023-02-25T00:55:34.364Z,101678.63
2023-02-25T00:58:02.330Z,101683.09
2023-02-25T01:00:35.919Z,101679.56
2023-02-25T01:03:08.595Z,101683.09
2023-02-25T01:05:41.175Z,101677.91
2023-02-25T01:08:11.015Z,101676.22
2023-02-25T01:10:38.881Z,101677.13
2023-02-25T01:13:06.804Z,101668.34
2023-02-25T01:15:34.664Z,101670.25
2023-02-25T01:18:02.551Z,101677.38
2023-02-25T01:20:30.453Z,101678.34
2023-02-25T01:22:58.364Z,101682.00
2023-02-25T01:25:27.632Z,101684.69
2023-02-25T01:27:56.268Z,101688.34
2023-02-25T01:30:24.216Z,101691.97
2023-02-25T01:32:52.572Z,101688.50
2023-02-25T01:35:20.493Z,101694.75
2023-02-25T01:37:49.922Z,101693.00
2023-02-25T01:40:17.970Z,101694.84
2023-02-25T01:42:47.717Z,101693.13
2023-02-25T01:45:32.722Z,101699.38
2023-02-25T01:48:06.970Z,101705.59
2023-02-25T01:50:42.038Z,101707.41
2023-02-25T01:53:09.873Z,101711.00
2023-02-25T01:55:37.923Z,101707.56
2023-02-25T01:58:07.202Z,101705.03
2023-02-25T02:00:35.105Z,101712.06
2023-02-25T02:03:03.030Z,101710.41
2023-02-25T02:05:39.228Z,101714.88
2023-02-25T02:08:07.187Z,101718.50
2023-02-25T02:10:35.088Z,101718.59
2023-02-25T02:13:02.959Z,101725.69
2023-02-25T02:15:32.767Z,101720.47
2023-02-25T02:18:01.107Z,101722.28
2023-02-25T02:20:31.805Z,101732.03
2023-02-25T02:23:22.960Z,101725.03
2023-02-25T02:26:18.304Z,101726.84
2023-02-25T02:29:18.455Z,101725.13
2023-02-25T02:31:52.593Z,101714.53
2023-02-25T02:34:26.668Z,101718.03
2023-02-25T02:37:00.281Z,101723.28
2023-02-25T02:39:30.171Z,101724.19
2023-02-25T02:42:01.027Z,101733.88
2023-02-25T02:44:31.235Z,101665.63
2023-02-25T02:47:01.333Z,101718.09
2023-02-25T02:49:31.496Z,101726.00
2023-02-25T02:52:00.796Z,101712.06
2023-02-25T02:54:30.863Z,101727.84
2023-02-25T02:56:58.744Z,101727.78
2023-02-25T02:59:27.957Z,101725.06
2023-02-25T03:01:58.446Z,101714.56
2023-02-25T03:04:30.276Z,101724.09
2023-02-25T03:07:00.874Z,101719.66
2023-02-25T03:09:31.559Z,101721.47
2023-02-25T03:11:59.434Z,101722.38
2023-02-25T03:14:27.409Z,101729.44
2023-02-25T03:16:57.460Z,101704.88
2023-02-25T03:19:28.342Z,101725.06
2023-02-25T03:21:57.266Z,101712.78
2023-02-25T03:24:28.984Z,101727.75
2023-02-25T03:26:56.820Z,101726.03
2023-02-25T03:29:25.489Z,101723.50
2023-02-25T03:31:57.264Z,101739.31
2023-02-25T03:34:26.420Z,101740.19
2023-02-25T03:36:58.124Z,101734.91
2023-02-25T03:39:27.951Z,101727.88
2023-02-25T03:41:56.802Z,101732.31
2023-02-25T03:44:26.704Z,101730.59
2023-02-25T03:46:55.148Z,101735.88
2023-02-25T03:49:24.518Z,101735.03
2023-02-25T03:51:52.408Z,101718.47
2023-02-25T03:54:21.659Z,101743.91
2023-02-25T03:56:50.220Z,101743.91
2023-02-25T03:59:18.392Z,101729.06
2023-02-25T04:01:47.348Z,101741.31
2023-02-25T04:04:15.343Z,101739.59
2023-02-25T04:06:43.250Z,101732.53
2023-02-25T04:09:11.388Z,101737.84
2023-02-25T04:11:40.684Z,101735.25
2023-02-25T04:14:08.569Z,101736.13
2023-02-25T04:16:37.048Z,101735.25
2023-02-25T04:19:04.968Z,101730.88
2023-02-25T04:21:35.143Z,101728.19
2023-02-25T04:24:03.116Z,101737.84
2023-02-25T04:26:31.010Z,101739.59
2023-02-25T04:29:00.266Z,101737.81
2023-02-25T04:31:28.352Z,101738.63
2023-02-25T04:33:58.222Z,101734.19
2023-02-25T04:36:27.879Z,101735.06
2023-02-25T04:38:55.755Z,101734.16
2023-02-25T04:41:23.770Z,101738.56
2023-02-25T04:43:51.657Z,101735.94
2023-02-25T04:46:21.292Z,101737.66
2023-02-25T04:48:49.444Z,101734.16
2023-02-25T04:51:17.422Z,101742.97
2023-02-25T04:53:46.720Z,101748.25
2023-02-25T04:56:14.785Z,101757.94
2023-02-25T04:58:42.857Z,101759.72
2023-02-25T05:01:11.123Z,101764.97
2023-02-25T05:03:40.576Z,101764.13
2023-02-25T05:06:08.858Z,101760.56
2023-02-25T05:08:37.204Z,101760.63
2023-02-25T05:11:05.529Z,101759.75
2023-02-25T05:13:33.532Z,101760.63
2023-02-25T05:16:06.329Z,101765.91
2023-02-25T05:18:37.011Z,101755.38
2023-02-25T05:21:07.377Z,101745.69
2023-02-25T05:23:35.257Z,101743.91
2023-02-25T05:26:03.157Z,101757.13
2023-02-25T05:28:31.069Z,101753.63
2023-02-25T05:30:59.111Z,101758.88
2023-02-25T05:33:27.586Z,101769.41
2023-02-25T05:35:55.453Z,101770.28
2023-02-25T05:38:26.032Z,101772.03
2023-02-25T05:40:53.934Z,101772.03
2023-02-25T05:43:21.774Z,101783.50
2023-02-25T05:45:54.284Z,101787.88
2023-02-25T05:48:23.013Z,101779.97
2023-02-25T05:50:51.351Z,101780.88
2023-02-25T05:53:19.263Z,101779.13
2023-02-25T05:55:48.509Z,101782.69
2023-02-25T05:58:16.374Z,101778.25
2023-02-25T06:00:44.814Z,101792.34
2023-02-25T06:03:12.814Z,101800.25
2023-02-25T06:05:41.468Z,101789.75
2023-02-25T06:08:09.362Z,101787.09
2023-02-25T06:10:39.311Z,101796.81
2023-02-25T06:13:08.675Z,101789.84
2023-02-25T06:15:38.170Z,101797.78
2023-02-25T06:18:06.182Z,101808.38
2023-02-25T06:20:35.276Z,101802.25
2023-02-25T06:23:03.253Z,101806.66
2023-02-25T06:25:31.123Z,101807.56
2023-02-25T06:27:59.033Z,101801.44
2023-02-25T06:30:28.392Z,101803.22
2023-02-25T06:32:56.341Z,101809.41
2023-02-25T06:35:24.311Z,101814.69
2023-02-25T06:37:52.175Z,101814.72
2023-02-25T06:40:20.088Z,101820.00
2023-02-25T06:42:47.986Z,101815.59
2023-02-25T06:45:15.939Z,101813.84
2023-02-25T06:47:45.189Z,101817.41
2023-02-25T06:50:14.315Z,101813.03
2023-02-25T06:52:42.165Z,101814.81
2023-02-25T06:55:11.109Z,101828.88
2023-02-25T06:57:38.996Z,101833.31
2023-02-25T07:00:09.421Z,101829.84
2023-02-25T07:02:37.290Z,101836.03
2023-02-25T07:05:07.276Z,101835.16
2023-02-25T07:07:35.137Z,101844.84
2023-02-25T07:10:02.999Z,101843.94
2023-02-25T07:12:31.266Z,101846.59
2023-02-25T07:14:59.432Z,101838.66
2023-02-25T07:17:27.327Z,101844.78
2023-02-25T07:19:55.199Z,101850.06
2023-02-25T07:22:24.456Z,101843.03
2023-02-25T07:24:52.426Z,101843.03
2023-02-25T07:27:20.305Z,101849.19
2023-02-25T07:29:48.265Z,101843.03
2023-02-25T07:32:16.415Z,101862.34
2023-02-25T07:34:44.511Z,101865.84
2023-02-25T07:37:13.733Z,101864.94
2023-02-25T07:39:43.002Z,101858.78
2023-02-25T07:42:13.324Z,101874.56
2023-02-25T07:44:41.288Z,101867.50
2023-02-25T07:47:09.313Z,101870.13
2023-02-25T07:49:37.475Z,101877.97
2023-02-25T07:52:05.355Z,101886.69
2023-02-25T07:54:33.234Z,101881.38
2023-02-25T07:57:02.765Z,101884.88
2023-02-25T07:59:30.661Z,101825.28
2023-02-25T08:01:58.607Z,101884.81
2023-02-25T08:04:27.440Z,101892.59
2023-02-25T08:06:55.510Z,101893.41
2023-02-25T08:09:23.410Z,101899.50
2023-02-25T08:11:51.832Z,101899.41
2023-02-25T08:14:21.659Z,101908.16
2023-02-25T08:16:49.632Z,101905.50
2023-02-25T08:19:17.499Z,101910.72
2023-02-25T08:21:46.192Z,101908.06
2023-02-25T08:24:14.111Z,101907.09
2023-02-25T08:26:42.123Z,101912.28
2023-02-25T08:29:10.038Z,101911.34
2023-02-25T08:31:39.407Z,101888.44
2023-02-25T08:34:07.496Z,101905.88
2023-02-25T08:36:36.312Z,101909.25
2023-02-25T08:39:04.252Z,101910.06
2023-02-25T08:41:32.248Z,101906.41
2023-02-25T08:44:01.236Z,101904.50
2023-02-25T08:46:30.175Z,101905.31
2023-02-25T08:48:59.938Z,101914.88
2023-02-25T08:51:34.512Z,101918.31
2023-02-25T08:54:04.050Z,101904.97
2023-02-25T08:56:31.927Z,101912.75
2023-02-25T08:58:59.896Z,101912.75
2023-02-25T09:01:40.986Z,101909.06
2023-02-25T09:04:10.292Z,101904.41
2023-02-25T09:06:38.176Z,101913.97
2023-02-25T09:09:06.441Z,101918.31
2023-02-25T09:11:34.340Z,101917.31
2023-02-25T09:14:02.243Z,101911.06
2023-02-25T09:16:30.329Z,101911.75
2023-02-25T09:18:58.291Z,101908.94
2023-02-25T09:21:27.622Z,101909.69
2023-02-25T09:23:55.592Z,101899.91
2023-02-25T09:26:23.772Z,101901.56
2023-02-25T09:28:51.686Z,101905.88
2023-02-25T09:31:19.737Z,101895.34
2023-02-25T09:33:47.733Z,101913.69
2023-02-25T09:36:16.710Z,101909.09
2023-02-25T09:38:46.330Z,101922.38
2023-02-25T09:41:26.776Z,101917.09
2023-02-25T09:44:01.113Z,101922.41
2023-02-25T09:46:29.083Z,101917.94
2023-02-25T09:48:59.815Z,101921.34
2023-02-25T09:51:29.254Z,101922.03
2023-02-25T09:54:03.102Z,101907.75
2023-02-25T09:56:31.051Z,101913.81
2023-02-25T09:58:59.301Z,101912.78
2023-02-25T10:01:34.349Z,101915.34
2023-02-25T10:04:05.244Z,101904.81
2023-02-25T10:06:35.088Z,101910.91
2023-02-25T10:09:10.103Z,101916.81
2023-02-25T10:11:43.201Z,101911.44
2023-02-25T10:14:18.116Z,101910.25
2023-02-25T10:16:49.052Z,101918.03
2023-02-25T10:19:25.358Z,101922.19
2023-02-25T10:22:02.035Z,101913.44
2023-02-25T10:24:34.783Z,101926.78
2023-02-25T10:27:11.425Z,101938.53
2023-02-25T10:29:40.749Z,101931.81
2023-02-25T10:32:17.429Z,101929.19
2023-02-25T10:34:46.771Z,101937.22
2023-02-25T10:37:26.586Z,101942.50
2023-02-25T10:39:57.874Z,101947.78
2023-02-25T10:42:26.196Z,101949.38
2023-02-25T10:44:54.311Z,101950.94
2023-02-25T10:47:27.463Z,101946.16
2023-02-25T10:50:12.757Z,101936.97
2023-02-25T10:52:54.486Z,101942.19
2023-02-25T10:55:51.603Z,101947.19
2023-02-25T10:58:27.974Z,101934.50
2023-02-25T11:00:58.778Z,101938.72
2023-02-25T11:03:27.856Z,101942.09
2023-02-25T11:05:59.963Z,101938.44
2023-02-25T11:08:29.239Z,101938.38
2023-02-25T11:11:06.198Z,101944.41
2023-02-25T11:13:36.561Z,101941.75
2023-02-25T11:16:06.636Z,101932.81
2023-02-25T11:18:34.533Z,101938.84
2023-02-25T11:21:03.138Z,101934.06
2023-02-25T11:23:33.495Z,101934.69
2023-02-25T11:26:01.634Z,101928.09
2023-02-25T11:28:32.657Z,101940.94
2023-02-25T11:31:12.190Z,101912.50
2023-02-25T11:33:41.442Z,101933.25
2023-02-25T11:36:09.872Z,101918.72
2023-02-25T11:38:38.442Z,101932.66
2023-02-25T11:41:11.978Z,101932.38
2023-02-25T11:43:42.336Z,101933.97
2023-02-25T11:46:12.972Z,101923.91
2023-02-25T11:48:50.269Z,101931.50
2023-02-25T11:51:24.354Z,101921.53
2023-02-25T11:54:13.711Z,101920.38
2023-02-25T11:56:43.894Z,101920.28
2023-02-25T11:59:22.738Z,101921.91
2023-02-25T12:02:03.358Z,101905.47
2023-02-25T12:04:54.406Z,101917.94
2023-02-25T12:08:13.442Z,101899.94
2023-02-25T12:11:24.269Z,101917.66
2023-02-25T12:14:19.841Z,101921.19
2023-02-25T12:17:11.782Z,101927.91
2023-02-25T12:20:05.799Z,101925.53
2023-02-25T12:23:12.754Z,101933.69
2023-02-25T12:25:44.399Z,101926.88
2023-02-25T12:28:30.723Z,101933.06
2023-02-25T12:31:27.655Z,101927.56
2023-02-25T12:34:22.696Z,101922.78
2023-02-25T12:36:58.262Z,101920.09
2023-02-25T12:39:40.630Z,101912.06
2023-02-25T12:42:14.561Z,101918.38
2023-02-25T12:45:30.395Z,101919.97
2023-02-25T12:48:25.121Z,101920.38
2023-02-25T12:51:14.849Z,101915.28
2023-02-25T12:53:47.595Z,101908.56
2023-02-25T12:56:26.394Z,101920.03
2023-02-25T12:59:10.430Z,101895.00
2023-02-25T13:01:52.711Z,101916.19
2023-02-25T13:04:51.404Z,101907.47
2023-02-25T13:07:30.787Z,101905.34
2023-02-25T13:10:12.249Z,101909.72
2023-02-25T13:13:01.810Z,101905.72
2023-02-25T13:15:33.970Z,101908.13
2023-02-25T13:18:11.384Z,101907.75
2023-02-25T13:20:57.131Z,101897.09
2023-02-25T13:23:39.114Z,101900.22
2023-02-25T13:26:39.919Z,101904.91
2023-02-25T13:29:40.364Z,101900.69
2023-02-25T13:32:16.387Z,101895.47
2023-02-25T13:34:46.132Z,101893.28
2023-02-25T13:37:30.102Z,101889.56
2023-02-25T13:40:13.125Z,101901.72
2023-02-25T13:42:53.071Z,101899.44
2023-02-25T13:45:57.526Z,101881.22
2023-02-25T13:48:43.134Z,101893.75
2023-02-25T13:51:49.875Z,101884.44
2023-02-25T13:54:29.103Z,101885.34
2023-02-25T13:57:00.267Z,101887.38
2023-02-25T13:59:49.281Z,101887.56
2023-02-25T14:02:42.852Z,101889.72
2023-02-25T14:05:35.654Z,101888.91
2023-02-25T14:08:10.142Z,101884.78
2023-02-25T14:10:44.293Z,101894.25
2023-02-25T14:13:32.742Z,101893.34
2023-02-25T14:16:05.757Z,101888.56
2023-02-25T14:19:08.585Z,101885.00
2023-02-25T14:21:47.631Z,101892.16
2023-02-25T14:24:17.502Z,101876.28
2023-02-25T14:26:49.589Z,101884.31
2023-02-25T14:29:22.116Z,101883.06
2023-02-25T14:31:57.509Z,101876.31
2023-02-25T14:34:32.742Z,101882.56
2023-02-25T14:37:07.463Z,101869.03
2023-02-25T14:39:44.950Z,101882.66
2023-02-25T14:42:20.713Z,101870.22
2023-02-25T14:44:51.810Z,101866.22
2023-02-25T14:47:21.672Z,101866.88
2023-02-25T14:49:55.327Z,101863.25
2023-02-25T14:52:34.803Z,101871.81
2023-02-25T14:55:29.904Z,101873.31
2023-02-25T14:58:27.129Z,101890.09
2023-02-25T15:01:19.110Z,101893.00
2023-02-25T15:04:00.967Z,101881.72
2023-02-25T15:06:38.277Z,101894.56
2023-02-25T15:09:36.548Z,101896.75
2023-02-25T15:12:23.451Z,101898.47
2023-02-25T15:15:20.500Z,101893.78
2023-02-25T15:18:17.221Z,101908.06
2023-02-25T15:20:45.321Z,101896.59
2023-02-25T15:23:15.242Z,101911.22
2023-02-25T15:25:45.812Z,101909.25
2023-02-25T15:28:37.349Z,101921.06
2023-02-25T15:31:30.056Z,101921.47
2023-02-25T15:34:30.079Z,101924.31
2023-02-25T15:37:28.121Z,101935.06
2023-02-25T15:39:56.825Z,101921.75
2023-02-25T15:42:46.341Z,101887.59
2023-02-25T15:45:44.663Z,101917.81
2023-02-25T15:48:38.414Z,101922.25
2023-02-25T15:51:10.293Z,101915.25
2023-02-25T15:53:49.137Z,101914.34
2023-02-25T15:56:31.190Z,101927.63
2023-02-25T15:59:00.004Z,101920.50
2023-02-25T16:01:46.153Z,101919.81
2023-02-25T16:04:50.286Z,101925.25
2023-02-25T16:07:20.321Z,101922.94
2023-02-25T16:09:52.022Z,101926.50
2023-02-25T16:12:19.916Z,101939.78
2023-02-25T16:14:47.819Z,101935.47
2023-02-25T16:17:17.796Z,101922.44
2023-02-25T16:19:47.912Z,101926.97
2023-02-25T16:22:17.829Z,101932.28
2023-02-25T16:24:48.033Z,101928.97
2023-02-25T16:27:20.776Z,101945.53
2023-02-25T16:29:53.156Z,101946.34
2023-02-25T16:32:27.552Z,101943.81
2023-02-25T16:34:58.057Z,101953.25
2023-02-25T16:37:30.601Z,101951.63
2023-02-25T16:39:58.862Z,101956.94
2023-02-25T16:42:26.846Z,101956.22
2023-02-25T16:44:58.421Z,101951.28
2023-02-25T16:47:27.279Z,101964.69
2023-02-25T16:49:55.800Z,101967.34
2023-02-25T16:52:33.402Z,101976.44
2023-02-25T16:55:01.894Z,101968.56
2023-02-25T16:57:29.781Z,101969.53
2023-02-25T17:00:14.282Z,101962.69
2023-02-25T17:02:44.632Z,101975.91
2023-02-25T17:05:23.770Z,101970.78
2023-02-25T17:07:57.012Z,101977.94
2023-02-25T17:10:26.054Z,101985.06
2023-02-25T17:12:53.953Z,101986.00
2023-02-25T17:15:23.659Z,101963.13
2023-02-25T17:17:52.576Z,101985.03
2023-02-25T17:20:23.541Z,101992.09
2023-02-25T17:22:51.647Z,101991.22
2023-02-25T17:25:21.035Z,101993.94
2023-02-25T17:27:49.506Z,101997.56
2023-02-25T17:30:40.948Z,101998.50
2023-02-25T17:33:18.966Z,101927.69
2023-02-25T17:35:47.946Z,101995.22
2023-02-25T17:38:17.141Z,101982.88
2023-02-25T17:40:46.586Z,101987.28
2023-02-25T17:43:21.943Z,101991.75
2023-02-25T17:45:51.500Z,101991.03
2023-02-25T17:48:20.593Z,101998.16
2023-02-25T17:50:53.401Z,102005.31
2023-02-25T17:53:29.566Z,101991.44
2023-02-25T17:55:59.352Z,102016.31
2023-02-25T17:58:27.251Z,102020.94
2023-02-25T18:01:01.708Z,102013.91
2023-02-25T18:03:30.740Z,102027.31
2023-02-25T18:06:00.258Z,102022.22
2023-02-25T18:08:28.438Z,102036.53
2023-02-25T18:10:59.389Z,102031.44
2023-02-25T18:13:31.092Z,102037.78
2023-02-25T18:16:41.237Z,102053.03
2023-02-25T18:19:25.876Z,102048.69
2023-02-25T18:21:53.797Z,102055.78
2023-02-25T18:24:26.844Z,102056.72
2023-02-25T18:27:03.693Z,102058.66
2023-02-25T18:29:32.050Z,102065.72
2023-02-25T18:31:59.982Z,102077.28
2023-02-25T18:34:27.936Z,102070.28
2023-02-25T18:36:55.867Z,102069.38
2023-02-25T18:39:23.752Z,102075.56
2023-02-25T18:41:51.743Z,102071.94
2023-02-25T18:44:21.063Z,102080.63
2023-02-25T18:46:48.952Z,102080.53
2023-02-25T18:49:17.251Z,102078.66
2023-02-25T18:51:45.121Z,102085.66
2023-02-25T18:54:16.156Z,102085.53
2023-02-25T18:56:44.078Z,102092.53
2023-02-25T18:59:11.996Z,102093.34
2023-02-25T19:01:41.591Z,102087.94
2023-02-25T19:04:11.359Z,102082.56
2023-02-25T19:06:39.230Z,102088.63
2023-02-25T19:09:07.601Z,102085.00
2023-02-25T19:11:36.996Z,102094.72
2023-02-25T19:14:07.980Z,102096.34
2023-02-25T19:16:35.942Z,102081.31
2023-02-25T19:19:05.179Z,102087.47
2023-02-25T19:21:33.048Z,102087.38
2023-02-25T19:24:01.000Z,102087.38
2023-02-25T19:26:28.874Z,102081.13
2023-02-25T19:28:56.733Z,102076.78
2023-02-25T19:31:24.618Z,102072.31
2023-02-25T19:33:52.508Z,102074.97
2023-02-25T19:36:21.747Z,102074.97
2023-02-25T19:38:49.684Z,102064.50
2023-02-25T19:41:17.545Z,102078.53
2023-02-25T19:43:45.472Z,102082.97
2023-02-25T19:46:17.249Z,102082.16
2023-02-25T19:48:45.373Z,102099.84
2023-02-25T19:51:13.226Z,102085.81
2023-02-25T19:53:42.492Z,102094.81
2023-02-25T19:56:10.360Z,102101.13
2023-02-25T19:58:38.243Z,102105.72
2023-02-25T20:01:06.833Z,102117.41
2023-02-25T20:03:34.915Z,102124.66
2023-02-25T20:06:06.794Z,102132.75
2023-02-25T20:08:35.712Z,102134.63
2023-02-25T20:11:08.649Z,102128.53
2023-02-25T20:13:38.361Z,102131.25
2023-02-25T20:16:07.114Z,102145.47
2023-02-25T20:18:35.244Z,102149.09
2023-02-25T20:21:04.151Z,102143.00
2023-02-25T20:23:32.100Z,102156.31
2023-02-25T20:26:08.067Z,102153.69
2023-02-25T20:28:36.158Z,102154.63
2023-02-25T20:31:05.187Z,102153.78
2023-02-25T20:33:33.177Z,102167.91
2023-02-25T20:36:01.601Z,102153.06
2023-02-25T20:38:31.562Z,102174.16
2023-02-25T20:40:59.572Z,102174.19
2023-02-25T20:43:29.095Z,102185.69
2023-02-25T20:45:57.280Z,102195.38
2023-02-25T20:48:28.769Z,102193.63
2023-02-25T20:50:57.061Z,102198.91
2023-02-25T20:53:25.320Z,102199.72
2023-02-25T20:55:53.730Z,102196.09
2023-02-25T20:58:21.633Z,102197.81
2023-02-25T21:00:50.892Z,102190.75
2023-02-25T21:03:18.816Z,102204.81
2023-02-25T21:05:46.726Z,102203.00
2023-02-25T21:08:14.794Z,102210.88
2023-02-25T21:10:43.432Z,102217.06
2023-02-25T21:13:11.338Z,102225.06
2023-02-25T21:15:39.210Z,102218.03
2023-02-25T21:18:08.480Z,102226.88
2023-02-25T21:20:36.431Z,102228.72
2023-02-25T21:23:04.297Z,102236.69
2023-02-25T21:25:32.177Z,102240.28
2023-02-25T21:28:00.032Z,102242.97
2023-02-25T21:30:28.083Z,102256.28
2023-02-25T21:32:56.082Z,102263.34
2023-02-25T21:35:25.309Z,102257.25
2023-02-25T21:37:53.428Z,102266.00
2023-02-25T21:40:21.413Z,102251.91
2023-02-25T21:42:50.655Z,102254.63
2023-02-25T21:45:18.715Z,102253.72
2023-02-25T21:47:46.607Z,102261.66
2023-02-25T21:50:14.448Z,102256.31
2023-02-25T21:52:43.678Z,102252.81
2023-02-25T21:55:11.676Z,102266.97
2023-02-25T21:57:39.560Z,102261.69
2023-02-25T22:00:10.908Z,102261.72
2023-02-25T22:02:38.827Z,102267.03
2023-02-25T22:05:07.687Z,102265.28
2023-02-25T22:07:35.613Z,102265.31
2023-02-25T22:10:05.204Z,102269.75
2023-02-25T22:12:33.060Z,102275.03
2023-02-25T22:15:00.958Z,102264.50
2023-02-25T22:17:28.819Z,102277.72
2023-02-25T22:19:56.660Z,102284.78
2023-02-25T22:22:24.493Z,102279.50
2023-02-25T22:24:52.397Z,102286.56
2023-02-25T22:27:21.673Z,102292.69
2023-02-25T22:29:49.538Z,102291.78
2023-02-25T22:32:17.471Z,102297.09
2023-02-25T22:34:45.705Z,102297.94
2023-02-25T22:37:13.610Z,102300.59
2023-02-25T22:39:41.461Z,102300.56
2023-02-25T22:42:09.414Z,102308.53
2023-02-25T22:44:38.690Z,102304.13
2023-02-25T22:47:06.587Z,102311.22
2023-02-25T22:49:34.470Z,102304.22
2023-02-25T22:52:02.375Z,102306.91
2023-02-25T22:54:30.658Z,102299.88
2023-02-25T22:56:58.586Z,102302.53
2023-02-25T22:59:26.546Z,102306.09
2023-02-25T23:01:55.894Z,102307.00
2023-02-25T23:04:23.863Z,102320.25
2023-02-25T23:06:54.119Z,102319.41
2023-02-25T23:09:22.061Z,102314.16
2023-02-25T23:11:49.976Z,102324.78
2023-02-25T23:14:18.273Z,102323.88
2023-02-25T23:16:46.338Z,102309.81
2023-02-25T23:19:16.862Z,102316.00
2023-02-25T23:21:44.828Z,102324.81
2023-02-25T23:24:16.278Z,102326.63
2023-02-25T23:26:44.535Z,102331.91
2023-02-25T23:29:12.638Z,102331.91
2023-02-25T23:31:43.450Z,102333.69
2023-02-25T23:34:12.960Z,102334.59
2023-02-25T23:36:43.097Z,102331.94
2023-02-25T23:39:11.236Z,102334.59
2023-02-25T23:41:39.589Z,102329.31
2023-02-25T23:44:08.498Z,102341.66
2023-02-25T23:46:36.642Z,102339.00
2023-02-25T23:49:06.256Z,102334.63
2023-02-25T23:51:34.597Z,102343.44
2023-02-25T23:54:05.158Z,102348.72
2023-02-25T23:56:33.199Z,102344.34
2023-02-25T23:59:01.103Z,102347.88
